createdAt,value
2018-03-16T00:00:17.953Z,8.10
2018-03-16T00:02:45.417Z,8.10
2018-03-16T00:05:13.634Z,8.00
2018-03-16T00:07:41.094Z,8.00
2018-03-16T00:10:08.557Z,8.00
2018-03-16T00:12:36.757Z,8.00
2018-03-16T00:15:04.220Z,7.90
2018-03-16T00:17:31.693Z,8.00
2018-03-16T00:19:59.906Z,8.00
2018-03-16T00:22:38.149Z,8.00
2018-03-16T00:25:06.357Z,8.00
2018-03-16T00:27:33.825Z,7.90
2018-03-16T00:30:01.274Z,7.90
2018-03-16T00:32:28.717Z,7.90
2018-03-16T00:34:56.166Z,7.80
2018-03-16T00:37:23.626Z,7.60
2018-03-16T00:39:51.842Z,7.50
2018-03-16T00:42:19.314Z,7.50
2018-03-16T00:44:47.527Z,7.40
2018-03-16T00:47:14.981Z,7.40
2018-03-16T00:49:42.445Z,7.30
2018-03-16T00:52:09.915Z,7.30
2018-03-16T00:54:38.156Z,7.10
2018-03-16T00:57:06.384Z,7.00
2018-03-16T00:59:33.825Z,6.90
2018-03-16T01:02:01.280Z,6.80
2018-03-16T01:04:28.737Z,6.70
2018-03-16T01:06:56.191Z,6.60
2018-03-16T01:09:24.426Z,6.50
2018-03-16T01:11:51.881Z,6.40
2018-03-16T01:14:19.351Z,6.50
2018-03-16T01:16:46.809Z,6.50
2018-03-16T01:19:14.267Z,6.50
2018-03-16T01:21:41.738Z,6.60
2018-03-16T01:24:09.274Z,6.60
2018-03-16T01:26:36.733Z,6.50
2018-03-16T01:29:04.186Z,6.40
2018-03-16T01:31:32.425Z,6.20
2018-03-16T01:33:59.886Z,6.10
2018-03-16T01:36:27.350Z,6.10
2018-03-16T01:38:55.570Z,6.20
2018-03-16T01:41:23.790Z,6.30
2018-03-16T01:43:51.240Z,6.30
2018-03-16T01:46:18.698Z,6.30
2018-03-16T01:48:46.186Z,6.30
2018-03-16T01:51:14.418Z,6.20
2018-03-16T01:53:43.381Z,6.20
2018-03-16T01:56:10.843Z,6.20
2018-03-16T01:58:39.089Z,6.20
2018-03-16T02:01:06.550Z,6.20
2018-03-16T02:03:34.010Z,6.10
2018-03-16T02:06:02.242Z,6.00
2018-03-16T02:08:29.701Z,6.00
2018-03-16T02:10:57.148Z,6.00
2018-03-16T02:13:25.369Z,5.90
2018-03-16T02:15:52.814Z,5.80
2018-03-16T02:18:20.271Z,5.80
2018-03-16T02:20:47.722Z,5.90
2018-03-16T02:23:15.183Z,6.00
2018-03-16T02:25:43.442Z,6.00
2018-03-16T02:28:11.665Z,5.90
2018-03-16T02:30:39.131Z,5.90
2018-03-16T02:33:06.594Z,5.90
2018-03-16T02:35:34.810Z,6.00
2018-03-16T02:38:02.279Z,6.00
2018-03-16T02:40:30.255Z,6.10
2018-03-16T02:42:57.722Z,6.30
2018-03-16T02:45:25.176Z,6.30
2018-03-16T02:47:52.640Z,6.40
2018-03-16T02:50:20.157Z,6.40
2018-03-16T02:52:47.620Z,6.40
2018-03-16T02:55:15.082Z,6.50
2018-03-16T02:57:42.530Z,6.50
2018-03-16T03:00:10.750Z,6.50
2018-03-16T03:02:38.202Z,6.50
2018-03-16T03:05:05.671Z,6.50
2018-03-16T03:07:33.885Z,6.30
2018-03-16T03:10:01.382Z,6.30
2018-03-16T03:12:29.613Z,6.20
2018-03-16T03:14:57.078Z,6.20
2018-03-16T03:17:25.322Z,6.10
2018-03-16T03:19:52.763Z,6.10
2018-03-16T03:22:20.218Z,6.00
2018-03-16T03:24:47.674Z,5.80
2018-03-16T03:27:15.882Z,5.60
2018-03-16T03:29:43.342Z,5.60
2018-03-16T03:32:10.802Z,5.70
2018-03-16T03:34:38.386Z,5.70
2018-03-16T03:37:05.838Z,5.70
2018-03-16T03:39:33.305Z,5.60
2018-03-16T03:42:00.765Z,5.60
2018-03-16T03:44:28.222Z,5.50
2018-03-16T03:46:56.443Z,5.50
2018-03-16T03:49:23.922Z,5.50
2018-03-16T03:51:52.164Z,5.60
2018-03-16T03:54:19.625Z,5.60
2018-03-16T03:56:47.065Z,5.70
2018-03-16T03:59:15.290Z,6.00
2018-03-16T04:01:42.757Z,6.00
2018-03-16T04:04:10.206Z,6.10
2018-03-16T04:06:38.427Z,6.10
2018-03-16T04:09:05.884Z,6.10
2018-03-16T04:11:33.341Z,6.00
2018-03-16T04:14:00.798Z,5.90
2018-03-16T04:16:29.022Z,5.80
2018-03-16T04:18:56.473Z,5.80
2018-03-16T04:21:25.448Z,5.70
2018-03-16T04:23:52.968Z,5.70
2018-03-16T04:26:20.426Z,5.80
2018-03-16T04:28:47.881Z,5.70
2018-03-16T04:31:15.438Z,5.70
2018-03-16T04:33:43.656Z,5.70
2018-03-16T04:36:11.119Z,5.70
2018-03-16T04:38:38.565Z,5.80
2018-03-16T04:41:06.031Z,5.90
2018-03-16T04:43:33.497Z,5.90
2018-03-16T04:46:01.735Z,6.00
2018-03-16T04:48:29.950Z,6.10
2018-03-16T04:50:57.422Z,6.10
2018-03-16T04:53:24.887Z,6.10
2018-03-16T04:55:53.134Z,5.90
2018-03-16T04:58:20.575Z,5.90
2018-03-16T05:00:48.039Z,5.90
2018-03-16T05:03:16.320Z,5.80
2018-03-16T05:05:43.740Z,5.80
2018-03-16T05:08:11.977Z,5.90
2018-03-16T05:10:40.206Z,6.00
2018-03-16T05:13:07.672Z,6.00
2018-03-16T05:15:36.631Z,6.20
2018-03-16T05:18:04.099Z,6.20
2018-03-16T05:20:31.538Z,6.30
2018-03-16T05:22:59.052Z,6.40
2018-03-16T05:25:26.499Z,6.40
2018-03-16T05:27:53.962Z,6.40
2018-03-16T05:30:21.413Z,6.40
2018-03-16T05:32:48.873Z,6.30
2018-03-16T05:35:17.078Z,6.30
2018-03-16T05:37:44.531Z,6.30
2018-03-16T05:40:11.980Z,6.30
2018-03-16T05:42:39.462Z,6.40
2018-03-16T05:45:07.694Z,6.50
2018-03-16T05:47:35.153Z,6.50
2018-03-16T05:50:03.387Z,6.60
2018-03-16T05:52:30.834Z,6.60
2018-03-16T05:54:58.302Z,6.60
2018-03-16T05:57:26.517Z,6.70
2018-03-16T05:59:53.978Z,6.70
2018-03-16T06:02:22.934Z,6.80
2018-03-16T06:04:50.381Z,6.80
2018-03-16T06:07:17.844Z,6.80
2018-03-16T06:09:46.819Z,6.90
2018-03-16T06:12:14.279Z,6.90
2018-03-16T06:14:42.486Z,7.00
2018-03-16T06:17:09.958Z,7.00
2018-03-16T06:19:37.401Z,7.10
2018-03-16T06:22:05.622Z,7.20
2018-03-16T06:24:33.081Z,7.20
2018-03-16T06:27:00.546Z,7.30
2018-03-16T06:29:28.022Z,7.30
2018-03-16T06:31:55.484Z,7.40
2018-03-16T06:34:22.938Z,7.50
2018-03-16T06:36:50.382Z,7.50
2018-03-16T06:39:17.852Z,7.60
2018-03-16T06:41:45.306Z,7.70
2018-03-16T06:44:12.768Z,7.70
2018-03-16T06:46:40.982Z,7.80
2018-03-16T06:49:08.459Z,7.90
2018-03-16T06:51:36.678Z,7.90
2018-03-16T06:54:04.154Z,7.90
2018-03-16T06:56:31.606Z,7.90
2018-03-16T06:58:59.841Z,8.30
2018-03-16T07:01:27.302Z,8.20
2018-03-16T07:03:54.753Z,8.40
2018-03-16T07:06:22.971Z,8.40
2018-03-16T07:08:50.416Z,8.40
2018-03-16T07:11:17.870Z,8.30
2018-03-16T07:13:45.318Z,8.20
2018-03-16T07:16:12.777Z,8.20
2018-03-16T07:18:41.000Z,8.40
2018-03-16T07:21:08.485Z,8.40
2018-03-16T07:23:35.973Z,8.50
2018-03-16T07:26:03.455Z,8.40
2018-03-16T07:28:30.947Z,8.30
2018-03-16T07:30:58.442Z,8.30
2018-03-16T07:33:25.854Z,8.30
2018-03-16T07:35:53.331Z,8.40
2018-03-16T07:38:20.777Z,8.40
2018-03-16T07:40:48.987Z,8.40
2018-03-16T07:43:16.446Z,8.40
2018-03-16T07:45:49.745Z,8.40
2018-03-16T07:48:18.020Z,8.30
2018-03-16T07:50:45.426Z,8.30
2018-03-16T07:53:12.874Z,8.40
2018-03-16T07:55:40.324Z,8.60
2018-03-16T07:58:07.793Z,8.60
2018-03-16T08:00:36.003Z,8.70
2018-03-16T08:03:03.447Z,8.60
2018-03-16T08:05:30.909Z,8.70
2018-03-16T08:07:58.378Z,8.70
2018-03-16T08:10:26.602Z,9.00
2018-03-16T08:12:54.060Z,8.90
2018-03-16T08:15:21.531Z,8.90
2018-03-16T08:17:49.732Z,8.80
2018-03-16T08:20:17.201Z,8.80
2018-03-16T08:22:44.645Z,8.70
2018-03-16T08:25:12.118Z,8.60
2018-03-16T08:27:39.574Z,8.70
2018-03-16T08:30:07.014Z,8.80
2018-03-16T08:32:34.490Z,8.80
2018-03-16T08:35:01.969Z,8.90
2018-03-16T08:37:30.196Z,8.90
2018-03-16T08:39:57.664Z,8.90
2018-03-16T08:42:25.878Z,9.10
2018-03-16T08:44:53.322Z,9.10
2018-03-16T08:47:20.798Z,9.00
2018-03-16T08:49:48.261Z,8.90
2018-03-16T08:52:16.469Z,9.00
2018-03-16T08:54:43.932Z,9.00
2018-03-16T08:57:11.403Z,9.20
2018-03-16T08:59:39.634Z,9.50
2018-03-16T09:02:07.074Z,9.50
2018-03-16T09:04:34.550Z,9.80
2018-03-16T09:07:02.788Z,10.10
2018-03-16T09:09:30.249Z,10.10
2018-03-16T09:11:58.479Z,10.30
2018-03-16T09:14:25.935Z,10.30
2018-03-16T09:16:53.510Z,10.50
2018-03-16T09:19:20.961Z,10.60
2018-03-16T09:21:48.422Z,10.70
2018-03-16T09:24:15.881Z,10.60
2018-03-16T09:26:43.337Z,10.60
2018-03-16T09:29:10.803Z,10.60
2018-03-16T09:31:39.022Z,10.40
2018-03-16T09:34:06.483Z,10.40
2018-03-16T09:36:33.954Z,10.40
2018-03-16T09:39:02.189Z,10.00
2018-03-16T09:41:29.645Z,10.00
2018-03-16T09:43:57.882Z,10.20
2018-03-16T09:46:25.449Z,10.20
2018-03-16T09:48:52.973Z,10.30
2018-03-16T09:51:20.518Z,10.50
2018-03-16T09:53:47.975Z,10.60
2018-03-16T09:56:16.206Z,10.80
2018-03-16T09:58:44.426Z,10.90
2018-03-16T10:01:11.890Z,10.80
2018-03-16T10:03:39.342Z,11.10
2018-03-16T10:06:06.834Z,11.00
2018-03-16T10:08:35.053Z,11.00
2018-03-16T10:11:02.526Z,11.00
2018-03-16T10:13:30.746Z,11.10
2018-03-16T10:15:58.221Z,11.10
2018-03-16T10:18:25.677Z,11.00
2018-03-16T10:20:53.910Z,11.30
2018-03-16T10:23:21.375Z,11.20
2018-03-16T10:25:48.820Z,11.20
2018-03-16T10:28:17.069Z,11.00
2018-03-16T10:30:44.528Z,10.90
2018-03-16T10:33:12.760Z,10.80
2018-03-16T10:35:40.218Z,10.70
2018-03-16T10:38:08.438Z,10.60
2018-03-16T10:40:35.918Z,10.60
2018-03-16T10:43:03.367Z,10.60
2018-03-16T10:45:31.605Z,11.00
2018-03-16T10:47:59.079Z,11.00
2018-03-16T10:50:26.534Z,11.20
2018-03-16T10:52:53.985Z,11.20
2018-03-16T10:55:21.510Z,11.10
2018-03-16T10:57:49.733Z,11.30
2018-03-16T11:00:22.966Z,11.30
2018-03-16T11:02:51.302Z,11.20
2018-03-16T11:08:26.066Z,11.40
2018-03-16T11:10:53.535Z,11.60
2018-03-16T11:13:20.996Z,11.60
2018-03-16T11:15:49.228Z,11.60
2018-03-16T11:18:16.687Z,11.60
2018-03-16T11:20:44.139Z,11.80
2018-03-16T11:23:12.374Z,11.70
2018-03-16T11:25:39.854Z,11.60
2018-03-16T11:28:07.330Z,11.60
2018-03-16T11:30:34.785Z,11.50
2018-03-16T11:33:02.263Z,11.40
2018-03-16T11:35:30.477Z,11.30
2018-03-16T11:37:57.949Z,11.30
2018-03-16T11:40:25.512Z,11.30
2018-03-16T11:42:53.730Z,11.50
2018-03-16T11:45:21.204Z,11.50
2018-03-16T11:47:50.166Z,12.00
2018-03-16T11:50:17.638Z,12.00
2018-03-16T11:52:45.857Z,12.30
2018-03-16T11:55:13.319Z,12.20
2018-03-16T11:57:40.771Z,12.40
2018-03-16T12:00:08.227Z,12.90
2018-03-16T12:02:36.453Z,12.50
2018-03-16T12:05:03.914Z,12.50
2018-03-16T12:07:32.162Z,12.10
2018-03-16T12:09:59.626Z,12.00
2018-03-16T12:12:27.867Z,11.70
2018-03-16T12:14:55.321Z,11.70
2018-03-16T12:17:23.538Z,11.60
2018-03-16T12:19:50.989Z,11.60
2018-03-16T12:22:18.469Z,11.70
2018-03-16T12:24:46.727Z,12.30
2018-03-16T12:27:14.946Z,12.40
2018-03-16T12:29:42.406Z,12.40
2018-03-16T12:32:09.858Z,12.60
2018-03-16T12:34:37.326Z,12.50
2018-03-16T12:37:05.549Z,13.90
2018-03-16T12:39:33.010Z,13.90
2018-03-16T12:42:00.472Z,14.40
2018-03-16T12:44:28.694Z,14.00
2018-03-16T12:46:56.183Z,13.90
2018-03-16T12:49:24.394Z,13.20
2018-03-16T12:51:51.881Z,13.20
2018-03-16T12:54:19.337Z,13.00
2018-03-16T12:56:46.793Z,13.90
2018-03-16T12:59:14.262Z,14.80
2018-03-16T13:01:41.738Z,14.70
2018-03-16T13:04:09.958Z,14.20
2018-03-16T13:06:37.410Z,14.20
2018-03-16T13:09:04.884Z,13.90
2018-03-16T13:11:33.128Z,13.00
2018-03-16T13:14:00.578Z,13.00
2018-03-16T13:16:28.809Z,12.90
2018-03-16T13:18:56.275Z,12.80
2018-03-16T13:21:23.738Z,12.40
2018-03-16T13:23:51.952Z,12.30
2018-03-16T13:26:19.419Z,12.20
2018-03-16T13:28:46.890Z,12.50
2018-03-16T13:31:14.346Z,12.60
2018-03-16T13:33:41.821Z,12.60
2018-03-16T13:36:09.282Z,12.50
2018-03-16T13:38:36.727Z,12.70
2018-03-16T13:41:04.190Z,13.40
2018-03-16T13:43:32.439Z,14.50
2018-03-16T13:45:59.898Z,14.50
2018-03-16T13:48:27.348Z,14.60
2018-03-16T13:50:54.798Z,14.30
2018-03-16T13:53:22.259Z,13.60
2018-03-16T13:55:49.722Z,13.00
2018-03-16T13:58:17.178Z,13.60
2018-03-16T14:00:44.642Z,13.90
2018-03-16T14:03:12.874Z,14.20
2018-03-16T14:05:40.322Z,14.20
2018-03-16T14:08:07.883Z,14.40
2018-03-16T14:10:36.110Z,15.00
2018-03-16T14:13:03.567Z,15.00
2018-03-16T14:15:31.045Z,15.20
2018-03-16T14:17:59.272Z,16.00
2018-03-16T14:20:26.723Z,16.00
2018-03-16T14:22:54.200Z,16.30
2018-03-16T14:25:21.654Z,17.10
2018-03-16T14:27:49.110Z,16.70
2018-03-16T14:30:16.586Z,16.70
2018-03-16T14:32:44.076Z,16.20
2018-03-16T14:35:11.533Z,16.40
2018-03-16T14:37:38.991Z,16.20
2018-03-16T14:40:06.546Z,16.20
2018-03-16T14:42:34.015Z,16.80
2018-03-16T14:45:02.242Z,15.90
2018-03-16T14:47:29.708Z,15.80
2018-03-16T14:49:57.150Z,15.20
2018-03-16T14:52:25.374Z,14.50
2018-03-16T14:54:52.826Z,14.50
2018-03-16T14:57:20.300Z,15.20
2018-03-16T14:59:48.525Z,16.30
2018-03-16T15:02:15.988Z,16.30
2018-03-16T15:04:43.462Z,16.60
2018-03-16T15:07:10.911Z,16.70
2018-03-16T15:09:38.363Z,16.20
2018-03-16T15:12:05.834Z,16.30
2018-03-16T15:14:33.302Z,16.40
2018-03-16T15:17:00.758Z,15.80
2018-03-16T15:19:28.994Z,14.00
2018-03-16T15:21:56.538Z,14.00
2018-03-16T15:24:23.960Z,13.60
2018-03-16T15:26:51.377Z,13.30
2018-03-16T15:29:18.804Z,13.30
2018-03-16T15:31:46.241Z,13.50
2018-03-16T15:34:13.680Z,13.90
2018-03-16T15:36:41.112Z,14.10
2018-03-16T15:39:08.559Z,14.60
2018-03-16T15:41:35.981Z,14.50
2018-03-16T15:44:04.180Z,13.70
2018-03-16T15:46:31.624Z,13.70
2018-03-16T15:48:59.074Z,13.90
2018-03-16T15:51:26.480Z,14.20
2018-03-16T15:53:53.928Z,13.70
2018-03-16T15:56:21.364Z,13.30
2018-03-16T15:58:49.559Z,13.80
2018-03-16T16:01:16.996Z,13.80
2018-03-16T16:03:44.448Z,14.10
2018-03-16T16:06:11.833Z,13.90
2018-03-16T16:08:40.037Z,13.10
2018-03-16T16:11:07.444Z,13.10
2018-03-16T16:13:34.880Z,12.90
2018-03-16T16:16:03.084Z,12.60
2018-03-16T16:18:30.517Z,12.60
2018-03-16T16:20:57.940Z,13.00
2018-03-16T16:23:25.374Z,13.30
2018-03-16T16:25:52.792Z,13.50
2018-03-16T16:28:21.001Z,13.50
2018-03-16T16:30:48.415Z,13.50
2018-03-16T16:33:15.868Z,13.70
2018-03-16T16:35:43.281Z,13.60
2018-03-16T16:38:11.511Z,13.30
2018-03-16T16:40:38.940Z,13.30
2018-03-16T16:43:06.360Z,13.20
2018-03-16T16:45:33.823Z,13.20
2018-03-16T16:48:01.227Z,13.00
2018-03-16T16:50:28.653Z,12.90
2018-03-16T16:52:56.078Z,12.70
2018-03-16T16:55:24.293Z,12.40
2018-03-16T16:57:51.712Z,12.40
2018-03-16T17:00:19.152Z,12.00
2018-03-16T17:02:46.587Z,11.80
2018-03-16T17:05:14.017Z,11.80
2018-03-16T17:07:42.199Z,11.60
2018-03-16T17:10:09.623Z,11.50
2018-03-16T17:12:37.052Z,11.50
2018-03-16T17:15:05.301Z,11.30
2018-03-16T17:17:32.739Z,11.20
2018-03-16T17:20:00.148Z,11.20
2018-03-16T17:22:27.575Z,11.10
2018-03-16T17:24:55.014Z,11.10
2018-03-16T17:27:22.434Z,10.90
2018-03-16T17:29:49.885Z,10.80
2018-03-16T17:32:24.174Z,10.60
2018-03-16T17:34:45.489Z,10.60
2018-03-16T17:37:12.932Z,10.60
2018-03-16T17:39:40.341Z,10.50
2018-03-16T17:42:08.551Z,10.50
2018-03-16T17:44:36.112Z,10.40
2018-03-16T17:47:03.563Z,10.40
2018-03-16T17:49:30.992Z,10.40
2018-03-16T17:51:58.420Z,10.40
2018-03-16T17:54:25.852Z,10.30
2018-03-16T17:56:53.276Z,10.10
2018-03-16T17:59:20.728Z,10.00
2018-03-16T18:01:48.160Z,10.00
2018-03-16T18:04:15.580Z,9.90
2018-03-16T18:06:43.801Z,9.80
2018-03-16T18:09:11.237Z,9.80
2018-03-16T18:11:38.692Z,9.80
2018-03-16T18:14:06.100Z,9.70
2018-03-16T18:16:33.558Z,9.70
2018-03-16T18:19:00.980Z,9.70
2018-03-16T18:21:28.448Z,9.60
2018-03-16T18:23:55.904Z,9.50
2018-03-16T18:26:23.307Z,9.50
2018-03-16T18:28:50.805Z,9.50
2018-03-16T18:31:18.214Z,9.50
2018-03-16T18:33:45.649Z,9.50
2018-03-16T18:36:13.069Z,9.50
2018-03-16T18:38:40.501Z,9.50
2018-03-16T18:41:07.929Z,9.50
2018-03-16T18:43:36.131Z,9.50
2018-03-16T18:46:03.557Z,9.50
2018-03-16T18:48:30.988Z,9.50
2018-03-16T18:50:58.404Z,9.40
2018-03-16T18:53:26.609Z,9.30
2018-03-16T18:55:54.060Z,9.30
2018-03-16T18:58:21.519Z,9.30
2018-03-16T19:00:48.980Z,9.20
2018-03-16T19:03:16.384Z,9.20
2018-03-16T19:05:43.831Z,9.10
2018-03-16T19:08:11.269Z,9.00
2018-03-16T19:10:38.698Z,9.00
2018-03-16T19:13:06.116Z,9.00
2018-03-16T19:15:33.551Z,9.00
2018-03-16T19:18:00.973Z,8.80
2018-03-16T19:20:29.176Z,8.70
2018-03-16T19:22:56.598Z,8.60
2018-03-16T19:25:24.036Z,8.70
2018-03-16T19:27:52.204Z,8.60
2018-03-16T19:30:19.644Z,8.50
2018-03-16T19:32:47.055Z,8.50
2018-03-16T19:35:15.236Z,8.50
2018-03-16T19:37:42.687Z,8.50
2018-03-16T19:40:10.120Z,8.40
2018-03-16T19:42:38.284Z,8.30
2018-03-16T19:45:05.716Z,8.20
2018-03-16T19:47:33.131Z,8.20
2018-03-16T19:50:00.594Z,8.10
2018-03-16T19:52:28.775Z,7.90
2018-03-16T19:54:56.200Z,7.90
2018-03-16T19:57:23.636Z,7.80
2018-03-16T19:59:51.072Z,7.70
2018-03-16T20:02:19.282Z,7.60
2018-03-16T20:04:47.484Z,7.50
2018-03-16T20:07:15.686Z,7.40
2018-03-16T20:09:43.108Z,7.40
2018-03-16T20:12:10.533Z,7.40
2018-03-16T20:14:38.741Z,7.40
2018-03-16T20:17:06.159Z,7.40
2018-03-16T20:19:33.593Z,7.30
2018-03-16T20:22:01.025Z,7.20
2018-03-16T20:24:28.451Z,7.20
2018-03-16T20:26:56.644Z,7.20
2018-03-16T20:29:24.068Z,7.20
2018-03-16T20:31:51.501Z,7.20
2018-03-16T20:34:19.684Z,7.10
2018-03-16T20:36:47.105Z,7.10
2018-03-16T20:39:15.285Z,7.10
2018-03-16T20:41:42.709Z,7.10
2018-03-16T20:44:10.132Z,7.10
2018-03-16T20:46:38.321Z,7.00
2018-03-16T20:49:05.768Z,6.90
2018-03-16T20:51:33.165Z,6.90
2018-03-16T20:54:00.607Z,6.80
2018-03-16T20:56:28.028Z,6.70
2018-03-16T20:58:55.480Z,6.60
2018-03-16T21:01:22.917Z,6.40
2018-03-16T21:03:50.332Z,6.30
2018-03-16T21:06:17.772Z,6.30
2018-03-16T21:08:45.220Z,6.40
2018-03-16T21:11:12.655Z,6.50
2018-03-16T21:13:40.084Z,6.60
2018-03-16T21:16:07.493Z,6.80
2018-03-16T21:18:35.712Z,6.80
2018-03-16T21:21:03.128Z,6.80
2018-03-16T21:23:30.574Z,6.90
2018-03-16T21:25:58.024Z,6.90
2018-03-16T21:28:25.472Z,6.80
2018-03-16T21:30:52.894Z,6.70
2018-03-16T21:33:20.338Z,6.70
2018-03-16T21:35:47.756Z,6.70
2018-03-16T21:38:15.952Z,6.70
2018-03-16T21:40:43.825Z,6.70
2018-03-16T21:43:11.268Z,6.60
2018-03-16T21:45:38.689Z,6.50
2018-03-16T21:48:06.108Z,6.50
2018-03-16T21:50:33.521Z,6.40
2018-03-16T21:53:01.716Z,6.40
2018-03-16T21:55:29.152Z,6.30
2018-03-16T21:57:56.596Z,6.40
2018-03-16T22:00:24.089Z,6.30
2018-03-16T22:02:51.468Z,6.20
2018-03-16T22:05:18.888Z,6.10
2018-03-16T22:07:47.097Z,5.70
2018-03-16T22:10:14.552Z,5.60
2018-03-16T22:12:41.973Z,5.50
2018-03-16T22:15:09.409Z,5.40
2018-03-16T22:17:36.852Z,5.40
2018-03-16T22:20:04.279Z,5.30
2018-03-16T22:22:32.453Z,5.20
2018-03-16T22:24:59.864Z,5.20
2018-03-16T22:27:27.289Z,5.10
2018-03-16T22:29:55.483Z,5.20
2018-03-16T22:32:22.936Z,5.10
2018-03-16T22:34:50.365Z,5.10
2018-03-16T22:37:18.535Z,5.20
2018-03-16T22:39:45.985Z,5.20
2018-03-16T22:42:13.384Z,5.10
2018-03-16T22:44:41.576Z,5.00
2018-03-16T22:47:09.010Z,5.00
2018-03-16T22:49:36.420Z,5.00
2018-03-16T22:52:04.636Z,4.90
2018-03-16T22:54:32.069Z,4.90
2018-03-16T22:56:59.464Z,4.90
2018-03-16T22:59:27.055Z,4.90
2018-03-16T23:01:54.495Z,4.80
2018-03-16T23:04:21.896Z,4.70
2018-03-16T23:06:50.088Z,4.60
2018-03-16T23:09:17.561Z,4.60
2018-03-16T23:11:44.988Z,4.60
2018-03-16T23:14:12.448Z,4.50
2018-03-16T23:16:39.880Z,4.60
2018-03-16T23:19:07.308Z,4.50
2018-03-16T23:21:34.762Z,4.50
2018-03-16T23:24:02.181Z,4.40
2018-03-16T23:26:29.602Z,4.40
2018-03-16T23:28:57.785Z,4.50
2018-03-16T23:31:25.204Z,4.50
2018-03-16T23:33:52.647Z,4.60
2018-03-16T23:36:20.075Z,4.80
2018-03-16T23:38:48.280Z,5.10
2018-03-16T23:41:15.748Z,5.00
2018-03-16T23:43:43.207Z,5.20
2018-03-16T23:46:10.592Z,5.40
2018-03-16T23:48:38.030Z,5.40
2018-03-16T23:51:05.440Z,5.50
2018-03-16T23:53:32.912Z,5.40
2018-03-16T23:56:00.381Z,5.20
2018-03-16T23:58:27.795Z,5.00
